createdAt,value
2022-10-15T00:01:42.282Z,5.07
2022-10-15T00:04:10.609Z,4.47
2022-10-15T00:06:38.783Z,5.03
2022-10-15T00:09:06.948Z,4.97
2022-10-15T00:11:35.942Z,5.12
2022-10-15T00:14:04.075Z,4.82
2022-10-15T00:16:33.603Z,4.28
2022-10-15T00:19:02.174Z,5.00
2022-10-15T00:21:30.936Z,4.97
2022-10-15T00:23:58.910Z,5.20
2022-10-15T00:26:29.265Z,4.32
2022-10-15T00:29:00.034Z,3.67
2022-10-15T00:31:30.459Z,3.97
2022-10-15T00:34:01.022Z,4.25
2022-10-15T00:36:35.850Z,6.15
2022-10-15T00:39:05.967Z,4.57
2022-10-15T00:41:38.241Z,5.87
2022-10-15T00:44:21.782Z,4.53
2022-10-15T00:46:53.004Z,4.93
2022-10-15T00:49:28.665Z,5.03
2022-10-15T00:52:10.767Z,5.28
2022-10-15T00:54:43.586Z,5.55
2022-10-15T00:57:13.580Z,5.68
2022-10-15T00:59:50.526Z,5.12
2022-10-15T01:02:20.362Z,5.22
2022-10-15T01:04:49.129Z,5.40
2022-10-15T01:09:51.133Z,5.47
2022-10-15T01:12:57.363Z,5.53
2022-10-15T01:15:41.253Z,5.75
2022-10-15T01:18:20.722Z,6.18
2022-10-15T01:21:21.108Z,5.15
2022-10-15T01:24:11.377Z,5.90
2022-10-15T01:27:09.221Z,4.90
2022-10-15T01:30:25.560Z,6.25
2022-10-15T01:33:14.968Z,4.15
2022-10-15T01:35:49.535Z,4.05
2022-10-15T01:38:26.621Z,4.00
2022-10-15T01:41:00.922Z,4.95
2022-10-15T01:43:55.068Z,4.37
2022-10-15T01:46:37.010Z,4.20
2022-10-15T01:49:06.987Z,4.45
2022-10-15T01:51:38.165Z,4.05
2022-10-15T01:54:11.031Z,4.85
2022-10-15T01:56:40.359Z,5.37
2022-10-15T01:59:10.550Z,4.28
2022-10-15T02:04:22.196Z,5.40
2022-10-15T02:07:01.373Z,4.80
2022-10-15T02:09:58.117Z,6.15
2022-10-15T02:12:32.688Z,5.72
2022-10-15T02:15:11.815Z,6.20
2022-10-15T02:17:54.215Z,5.35
2022-10-15T02:20:32.815Z,6.78
2022-10-15T02:23:24.828Z,6.07
2022-10-15T02:25:55.006Z,5.32
2022-10-15T02:28:27.570Z,5.57
2022-10-15T02:30:58.531Z,5.00
2022-10-15T02:33:28.354Z,5.60
2022-10-15T02:35:58.518Z,4.60
2022-10-15T02:38:31.335Z,5.78
2022-10-15T02:41:01.151Z,5.18
2022-10-15T02:43:30.594Z,6.97
2022-10-15T02:45:58.895Z,5.65
2022-10-15T02:48:27.547Z,5.37
2022-10-15T02:50:55.977Z,6.07
2022-10-15T02:53:24.226Z,4.75
2022-10-15T02:55:52.492Z,5.62
2022-10-15T02:58:20.805Z,5.95
2022-10-15T03:00:50.126Z,4.37
2022-10-15T03:03:18.479Z,4.90
2022-10-15T03:05:47.245Z,4.90
2022-10-15T03:08:15.844Z,5.35
2022-10-15T03:10:45.670Z,4.97
2022-10-15T03:13:14.076Z,5.20
2022-10-15T03:15:43.249Z,4.82
2022-10-15T03:18:11.497Z,6.03
2022-10-15T03:20:40.833Z,4.62
2022-10-15T03:23:09.093Z,5.60
2022-10-15T03:25:37.678Z,6.90
2022-10-15T03:28:06.340Z,6.28
2022-10-15T03:30:35.146Z,6.32
2022-10-15T03:33:03.305Z,7.12
2022-10-15T03:35:31.840Z,6.72
2022-10-15T03:38:00.322Z,5.75
2022-10-15T03:40:28.710Z,6.75
2022-10-15T03:42:58.193Z,6.00
2022-10-15T03:45:26.929Z,5.68
2022-10-15T03:47:57.601Z,6.78
2022-10-15T03:50:29.447Z,6.68
2022-10-15T03:53:04.518Z,5.72
2022-10-15T03:55:34.030Z,5.93
2022-10-15T03:58:03.279Z,5.75
2022-10-15T04:00:31.441Z,6.12
2022-10-15T04:03:00.416Z,6.28
2022-10-15T04:05:28.863Z,5.72
2022-10-15T04:07:57.557Z,6.62
2022-10-15T04:10:26.869Z,5.45
2022-10-15T04:12:54.886Z,5.20
2022-10-15T04:15:23.097Z,5.28
2022-10-15T04:17:55.441Z,6.32
2022-10-15T04:20:24.255Z,6.10
2022-10-15T04:22:52.689Z,6.35
2022-10-15T04:25:20.926Z,6.03
2022-10-15T04:27:49.178Z,5.75
2022-10-15T04:30:18.174Z,5.12
2022-10-15T04:32:46.805Z,6.82
2022-10-15T04:35:15.257Z,4.43
2022-10-15T04:37:44.258Z,4.37
2022-10-15T04:40:13.532Z,5.40
2022-10-15T04:42:41.669Z,5.87
2022-10-15T04:45:10.269Z,5.80
2022-10-15T04:47:38.630Z,5.20
2022-10-15T04:50:07.328Z,4.47
2022-10-15T04:52:36.315Z,5.22
2022-10-15T04:55:05.319Z,4.97
2022-10-15T04:57:33.645Z,5.57
2022-10-15T05:00:02.463Z,5.97
2022-10-15T05:02:33.856Z,5.75
2022-10-15T05:05:08.072Z,5.55
2022-10-15T05:07:38.599Z,4.37
2022-10-15T05:10:08.096Z,5.80
2022-10-15T05:12:36.250Z,5.60
2022-10-15T05:15:04.745Z,5.03
2022-10-15T05:17:33.206Z,5.60
2022-10-15T05:20:05.424Z,5.78
2022-10-15T05:22:33.957Z,5.53
2022-10-15T05:25:02.951Z,5.37
2022-10-15T05:27:31.330Z,4.62
2022-10-15T05:30:00.009Z,5.95
2022-10-15T05:32:31.450Z,4.85
2022-10-15T05:35:00.181Z,4.12
2022-10-15T05:37:31.445Z,4.30
2022-10-15T05:40:00.701Z,4.50
2022-10-15T05:42:28.821Z,4.28
2022-10-15T05:44:57.729Z,5.37
2022-10-15T05:47:26.373Z,5.05
2022-10-15T05:49:57.642Z,4.65
2022-10-15T05:52:30.251Z,5.22
2022-10-15T05:54:59.216Z,4.60
2022-10-15T05:57:28.124Z,4.47
2022-10-15T05:59:56.387Z,5.80
2022-10-15T06:02:24.960Z,5.30
2022-10-15T06:04:53.498Z,6.22
2022-10-15T06:07:21.908Z,5.20
2022-10-15T06:09:50.177Z,5.47
2022-10-15T06:12:19.063Z,3.90
2022-10-15T06:14:47.224Z,5.30
2022-10-15T06:17:15.204Z,5.28
2022-10-15T06:19:48.594Z,5.20
2022-10-15T06:22:17.157Z,5.75
2022-10-15T06:24:45.648Z,6.30
2022-10-15T06:27:13.971Z,6.05
2022-10-15T06:29:42.029Z,4.93
2022-10-15T06:32:11.708Z,4.90
2022-10-15T06:34:42.016Z,5.18
2022-10-15T06:38:10.206Z,4.43
2022-10-15T06:40:39.731Z,4.37
2022-10-15T06:43:10.526Z,4.35
2022-10-15T06:45:42.067Z,6.87
2022-10-15T06:48:11.447Z,5.35
2022-10-15T06:50:39.920Z,4.72
2022-10-15T06:53:08.585Z,5.97
2022-10-15T06:55:36.711Z,6.30
2022-10-15T06:58:05.204Z,6.72
2022-10-15T07:03:07.731Z,6.25
2022-10-15T07:05:36.069Z,5.30
2022-10-15T07:08:05.423Z,6.00
2022-10-15T07:10:33.844Z,6.12
2022-10-15T07:13:02.209Z,5.80
2022-10-15T07:15:30.326Z,6.22
2022-10-15T07:18:01.534Z,6.00
2022-10-15T07:20:31.189Z,5.87
2022-10-15T07:23:02.416Z,6.53
2022-10-15T07:25:31.765Z,5.62
2022-10-15T07:28:00.122Z,6.93
2022-10-15T07:30:28.752Z,6.12
2022-10-15T07:32:58.073Z,5.32
2022-10-15T07:35:27.555Z,6.53
2022-10-15T07:37:56.247Z,5.50
2022-10-15T07:40:24.410Z,5.62
2022-10-15T07:42:54.300Z,5.68
2022-10-15T07:45:25.870Z,6.53
2022-10-15T07:47:54.128Z,6.07
2022-10-15T07:50:22.389Z,6.37
2022-10-15T07:52:50.721Z,5.97
2022-10-15T07:55:18.932Z,6.95
2022-10-15T07:57:46.929Z,6.32
2022-10-15T08:00:15.568Z,5.15
2022-10-15T08:02:45.492Z,5.62
2022-10-15T08:05:15.161Z,6.18
2022-10-15T08:07:43.690Z,6.30
2022-10-15T08:10:13.464Z,6.03
2022-10-15T08:12:41.606Z,6.22
2022-10-15T08:15:10.157Z,5.28
2022-10-15T08:17:38.775Z,6.15
2022-10-15T08:20:07.324Z,6.03
2022-10-15T08:22:35.848Z,4.93
2022-10-15T08:25:05.027Z,6.20
2022-10-15T08:27:33.319Z,5.25
2022-10-15T08:30:05.497Z,6.03
2022-10-15T08:32:34.182Z,5.85
2022-10-15T08:35:02.398Z,6.03
2022-10-15T08:37:33.752Z,6.22
2022-10-15T08:40:03.785Z,5.12
2022-10-15T08:42:42.102Z,6.00
2022-10-15T08:45:14.061Z,5.75
2022-10-15T08:47:50.144Z,5.53
2022-10-15T08:53:05.531Z,5.18
2022-10-15T08:55:41.491Z,6.47
2022-10-15T08:58:16.125Z,5.47
2022-10-15T09:00:52.661Z,4.87
2022-10-15T09:03:26.517Z,4.55
2022-10-15T09:06:10.118Z,4.25
2022-10-15T09:08:44.323Z,4.28
2022-10-15T09:13:46.998Z,3.75
2022-10-15T09:16:28.678Z,4.32
2022-10-15T09:18:59.825Z,3.83
2022-10-15T09:21:30.413Z,4.37
2022-10-15T09:24:05.222Z,3.80
2022-10-15T09:26:45.451Z,3.50
2022-10-15T09:29:30.260Z,4.25
2022-10-15T09:32:12.289Z,3.53
2022-10-15T09:34:40.447Z,3.22
2022-10-15T09:37:23.982Z,3.90
2022-10-15T09:40:35.935Z,4.05
2022-10-15T09:43:05.988Z,4.93
2022-10-15T09:45:34.069Z,4.10
2022-10-15T09:48:04.217Z,3.33
2022-10-15T09:50:50.139Z,3.15
2022-10-15T09:53:40.550Z,3.20
2022-10-15T09:56:49.314Z,3.12
2022-10-15T09:59:19.201Z,2.75
2022-10-15T10:01:58.417Z,3.28
2022-10-15T10:04:33.092Z,4.30
2022-10-15T10:07:04.637Z,3.85
2022-10-15T10:09:37.257Z,3.10
2022-10-15T10:12:08.602Z,2.40
2022-10-15T10:15:22.003Z,2.50
2022-10-15T10:17:57.250Z,2.72
2022-10-15T10:20:28.789Z,2.53
2022-10-15T10:22:59.852Z,2.25
2022-10-15T10:25:42.669Z,2.62
2022-10-15T10:28:13.468Z,2.92
2022-10-15T10:30:53.476Z,1.92
2022-10-15T10:33:50.102Z,2.55
2022-10-15T10:36:24.650Z,2.10
2022-10-15T10:39:04.727Z,1.70
2022-10-15T10:41:52.944Z,1.75
2022-10-15T10:44:39.681Z,2.20
2022-10-15T10:47:23.708Z,2.35
2022-10-15T10:49:58.861Z,2.53
2022-10-15T10:52:36.368Z,2.15
2022-10-15T10:55:25.575Z,2.65
2022-10-15T10:57:57.878Z,1.90
2022-10-15T11:00:43.014Z,2.70
2022-10-15T11:03:30.783Z,2.85
2022-10-15T11:06:51.903Z,2.45
2022-10-15T11:09:26.781Z,2.05
2022-10-15T11:12:06.605Z,2.05
2022-10-15T11:15:12.532Z,2.47
2022-10-15T11:17:59.264Z,2.00
2022-10-15T11:21:00.759Z,2.12
2022-10-15T11:23:45.988Z,1.98
2022-10-15T11:27:09.472Z,2.42
2022-10-15T11:29:55.548Z,2.08
2022-10-15T11:32:47.990Z,1.80
2022-10-15T11:36:10.499Z,2.22
2022-10-15T11:38:47.783Z,2.12
2022-10-15T11:41:34.173Z,1.98
2022-10-15T11:44:26.636Z,1.90
2022-10-15T11:47:21.759Z,2.20
2022-10-15T11:50:08.654Z,2.22
2022-10-15T11:52:45.047Z,2.50
2022-10-15T11:55:19.209Z,2.10
2022-10-15T11:57:51.691Z,2.72
2022-10-15T12:00:32.629Z,2.15
2022-10-15T12:03:16.473Z,1.30
2022-10-15T12:05:53.617Z,2.00
2022-10-15T12:08:26.571Z,2.15
2022-10-15T12:10:58.634Z,2.30
2022-10-15T12:13:50.803Z,2.33
2022-10-15T12:16:37.949Z,2.15
2022-10-15T12:19:21.887Z,2.15
2022-10-15T12:21:56.976Z,1.77
2022-10-15T12:24:51.678Z,1.62
2022-10-15T12:27:20.150Z,1.75
2022-10-15T12:30:00.311Z,1.58
2022-10-15T12:32:37.694Z,1.87
2022-10-15T12:35:28.461Z,2.37
2022-10-15T12:38:10.879Z,2.30
2022-10-15T12:40:40.346Z,1.58
2022-10-15T12:43:17.642Z,1.92
2022-10-15T12:46:00.813Z,1.80
2022-10-15T12:48:36.496Z,1.90
2022-10-15T12:51:17.011Z,1.60
2022-10-15T12:53:46.916Z,1.75
2022-10-15T12:56:15.257Z,1.60
2022-10-15T12:58:44.431Z,2.17
2022-10-15T13:01:15.464Z,2.00
2022-10-15T13:03:52.506Z,1.90
2022-10-15T13:06:20.637Z,1.65
2022-10-15T13:09:03.623Z,1.90
2022-10-15T13:11:45.848Z,1.70
2022-10-15T13:14:26.260Z,1.58
2022-10-15T13:16:57.689Z,1.92
2022-10-15T13:19:30.528Z,1.50
2022-10-15T13:22:04.081Z,1.60
2022-10-15T13:24:43.274Z,1.62
2022-10-15T13:27:15.854Z,1.80
2022-10-15T13:29:55.405Z,2.05
2022-10-15T13:32:25.460Z,1.90
2022-10-15T13:34:55.987Z,1.70
2022-10-15T13:37:34.460Z,1.58
2022-10-15T13:40:07.789Z,1.62
2022-10-15T13:42:36.782Z,1.50
2022-10-15T13:45:17.316Z,1.77
2022-10-15T13:47:51.335Z,1.50
2022-10-15T13:50:25.866Z,1.42
2022-10-15T13:52:55.819Z,2.10
2022-10-15T13:55:28.556Z,1.80
2022-10-15T13:58:03.438Z,1.50
2022-10-15T14:00:34.886Z,1.65
2022-10-15T14:03:13.458Z,1.87
2022-10-15T14:05:42.951Z,1.90
2022-10-15T14:08:33.904Z,1.77
2022-10-15T14:11:02.202Z,1.45
2022-10-15T14:13:30.522Z,2.10
2022-10-15T14:16:00.641Z,2.12
2022-10-15T14:18:43.089Z,2.33
2022-10-15T14:21:16.294Z,2.20
2022-10-15T14:23:47.056Z,1.85
2022-10-15T14:26:16.989Z,2.47
2022-10-15T14:28:52.117Z,2.65
2022-10-15T14:31:53.640Z,4.00
2022-10-15T14:34:35.173Z,3.72
2022-10-15T14:37:24.081Z,3.58
2022-10-15T14:40:23.189Z,2.42
2022-10-15T14:43:06.686Z,2.40
2022-10-15T14:45:37.726Z,2.37
2022-10-15T14:48:15.627Z,2.20
2022-10-15T14:50:44.701Z,2.17
2022-10-15T14:53:38.474Z,4.57
2022-10-15T14:56:15.060Z,2.35
2022-10-15T14:58:53.706Z,3.37
2022-10-15T15:01:22.474Z,3.20
2022-10-15T15:03:53.598Z,6.78
2022-10-15T15:06:21.944Z,4.47
2022-10-15T15:08:50.492Z,4.78
2022-10-15T15:11:23.276Z,3.87
2022-10-15T15:13:52.401Z,3.50
2022-10-15T15:16:20.613Z,2.10
2022-10-15T15:18:48.921Z,2.33
2022-10-15T15:21:23.909Z,2.10
2022-10-15T15:23:52.170Z,2.87
2022-10-15T15:26:20.627Z,3.10
2022-10-15T15:28:48.884Z,2.58
2022-10-15T15:31:18.902Z,2.70
2022-10-15T15:33:47.245Z,3.15
2022-10-15T15:36:20.862Z,2.65
2022-10-15T15:38:52.016Z,3.08
2022-10-15T15:41:23.166Z,3.28
2022-10-15T15:43:52.544Z,2.85
2022-10-15T15:46:20.865Z,3.37
2022-10-15T15:48:48.974Z,2.65
2022-10-15T15:51:28.888Z,3.45
2022-10-15T15:53:57.876Z,3.03
2022-10-15T15:56:26.297Z,3.15
2022-10-15T15:58:54.398Z,3.00
2022-10-15T16:01:22.700Z,3.03
2022-10-15T16:03:51.054Z,2.78
2022-10-15T16:06:19.099Z,2.50
2022-10-15T16:08:47.226Z,2.55
2022-10-15T16:11:15.556Z,2.67
2022-10-15T16:13:43.647Z,2.40
2022-10-15T16:16:14.870Z,3.25
2022-10-15T16:18:43.412Z,3.72
2022-10-15T16:21:11.450Z,2.47
2022-10-15T16:23:39.532Z,2.35
2022-10-15T16:26:08.596Z,2.45
2022-10-15T16:28:36.691Z,2.83
2022-10-15T16:31:29.381Z,2.83
2022-10-15T16:33:59.372Z,3.17
2022-10-15T16:36:27.552Z,2.65
2022-10-15T16:38:57.066Z,2.78
2022-10-15T16:41:25.631Z,3.00
2022-10-15T16:43:54.148Z,2.45
2022-10-15T16:46:22.841Z,1.85
2022-10-15T16:48:55.234Z,1.67
2022-10-15T16:51:24.483Z,2.20
2022-10-15T16:53:52.997Z,1.90
2022-10-15T16:56:24.200Z,2.50
2022-10-15T16:58:53.237Z,2.97
2022-10-15T17:01:24.892Z,2.67
2022-10-15T17:03:53.662Z,1.95
2022-10-15T17:06:24.978Z,2.25
2022-10-15T17:08:55.989Z,1.85
2022-10-15T17:11:29.356Z,2.40
2022-10-15T17:14:01.055Z,1.95
2022-10-15T17:16:36.440Z,2.70
2022-10-15T17:19:05.696Z,2.97
2022-10-15T17:21:34.770Z,2.70
2022-10-15T17:24:06.451Z,3.33
2022-10-15T17:26:38.505Z,2.78
2022-10-15T17:29:10.316Z,3.05
2022-10-15T17:31:39.389Z,3.15
2022-10-15T17:34:10.166Z,3.22
2022-10-15T17:36:45.768Z,3.20
2022-10-15T17:39:19.276Z,2.78
2022-10-15T17:41:48.265Z,2.30
2022-10-15T17:44:16.777Z,2.47
2022-10-15T17:46:44.963Z,2.35
2022-10-15T17:49:18.254Z,2.53
2022-10-15T17:51:47.175Z,2.20
2022-10-15T17:54:16.366Z,2.95
2022-10-15T17:56:45.923Z,2.90
2022-10-15T17:59:13.999Z,7.80
2022-10-15T18:02:00.364Z,7.57
2022-10-15T18:04:33.684Z,5.93
2022-10-15T18:07:01.842Z,4.72
2022-10-15T18:09:30.292Z,3.67
2022-10-15T18:12:00.625Z,5.03
2022-10-15T18:14:30.427Z,4.80
2022-10-15T18:16:58.884Z,4.68
2022-10-15T18:19:28.218Z,3.65
2022-10-15T18:21:57.618Z,3.40
2022-10-15T18:24:26.141Z,3.45
2022-10-15T18:26:54.931Z,3.75
2022-10-15T18:29:25.197Z,3.85
2022-10-15T18:31:57.633Z,5.20
2022-10-15T18:34:28.062Z,5.97
2022-10-15T18:36:56.776Z,5.87
2022-10-15T18:39:26.018Z,4.57
2022-10-15T18:41:54.870Z,5.20
2022-10-15T18:44:24.218Z,4.28
2022-10-15T18:46:52.395Z,3.40
2022-10-15T18:49:21.707Z,3.00
2022-10-15T18:51:54.173Z,3.40
2022-10-15T18:54:22.603Z,3.67
2022-10-15T18:56:52.509Z,3.00
2022-10-15T18:59:21.227Z,2.75
2022-10-15T19:01:50.351Z,4.05
2022-10-15T19:04:23.307Z,3.35
2022-10-15T19:06:53.783Z,3.58
2022-10-15T19:09:26.267Z,4.18
2022-10-15T19:11:57.102Z,3.97
2022-10-15T19:14:28.154Z,5.68
2022-10-15T19:16:57.017Z,4.45
2022-10-15T19:19:26.575Z,4.05
2022-10-15T19:21:58.304Z,3.12
2022-10-15T19:24:26.946Z,3.40
2022-10-15T19:26:55.249Z,5.00
2022-10-15T19:29:25.447Z,4.82
2022-10-15T19:31:55.796Z,3.83
2022-10-15T19:34:23.920Z,3.70
2022-10-15T19:36:52.041Z,4.78
2022-10-15T19:39:24.441Z,3.97
2022-10-15T19:41:53.214Z,4.07
2022-10-15T19:44:25.693Z,4.53
2022-10-15T19:46:57.464Z,5.40
2022-10-15T19:49:25.914Z,5.10
2022-10-15T19:51:54.805Z,3.35
2022-10-15T19:54:23.052Z,3.08
2022-10-15T19:56:51.548Z,4.20
2022-10-15T19:59:22.481Z,5.10
2022-10-15T20:01:50.570Z,4.35
2022-10-15T20:04:20.406Z,4.35
2022-10-15T20:06:51.669Z,4.55
2022-10-15T20:09:20.392Z,4.30
2022-10-15T20:11:48.543Z,4.97
2022-10-15T20:14:16.554Z,6.22
2022-10-15T20:16:46.357Z,4.70
2022-10-15T20:19:14.513Z,4.57
2022-10-15T20:21:42.572Z,5.05
2022-10-15T20:24:11.041Z,4.68
2022-10-15T20:26:39.432Z,3.37
2022-10-15T20:29:07.830Z,3.22
2022-10-15T20:31:36.250Z,3.25
2022-10-15T20:34:04.333Z,2.97
2022-10-15T20:36:32.591Z,3.17
2022-10-15T20:39:01.912Z,3.03
2022-10-15T20:41:31.588Z,2.80
2022-10-15T20:43:59.949Z,2.35
2022-10-15T20:46:34.475Z,2.62
2022-10-15T20:51:45.153Z,3.25
2022-10-15T20:54:14.541Z,2.25
2022-10-15T20:56:42.736Z,2.80
2022-10-15T20:59:11.356Z,2.55
2022-10-15T21:01:39.614Z,2.47
2022-10-15T21:04:07.692Z,2.92
2022-10-15T21:06:36.297Z,3.30
2022-10-15T21:09:04.840Z,3.17
2022-10-15T21:11:33.028Z,4.12
2022-10-15T21:14:05.378Z,4.68
2022-10-15T21:16:33.419Z,4.53
2022-10-15T21:19:01.800Z,4.75
2022-10-15T21:21:30.617Z,4.00
2022-10-15T21:23:59.285Z,4.22
2022-10-15T21:26:27.644Z,3.60
2022-10-15T21:28:57.525Z,3.22
2022-10-15T21:31:26.580Z,2.70
2022-10-15T21:33:55.354Z,4.00
2022-10-15T21:36:26.745Z,5.40
2022-10-15T21:38:57.729Z,4.12
2022-10-15T21:41:27.393Z,7.80
2022-10-15T21:43:56.365Z,6.00
2022-10-15T21:46:25.265Z,5.82
2022-10-15T21:48:54.056Z,4.47
2022-10-15T21:51:25.951Z,4.35
2022-10-15T21:53:55.848Z,3.65
2022-10-15T21:56:24.619Z,4.50
2022-10-15T21:58:54.466Z,4.93
2022-10-15T22:01:25.316Z,4.40
2022-10-15T22:03:58.781Z,3.97
2022-10-15T22:06:28.085Z,3.30
2022-10-15T22:08:56.806Z,3.33
2022-10-15T22:11:27.627Z,2.55
2022-10-15T22:14:00.883Z,3.00
2022-10-15T22:16:30.660Z,3.37
2022-10-15T22:18:59.115Z,2.40
2022-10-15T22:21:30.502Z,2.30
2022-10-15T22:24:05.428Z,2.25
2022-10-15T22:26:36.994Z,2.40
2022-10-15T22:29:08.264Z,2.97
2022-10-15T22:31:36.586Z,2.25
2022-10-15T22:34:04.869Z,2.72
2022-10-15T22:36:33.251Z,2.78
2022-10-15T22:39:05.111Z,2.60
2022-10-15T22:41:36.963Z,2.55
2022-10-15T22:44:05.991Z,2.58
2022-10-15T22:46:36.116Z,2.25
2022-10-15T22:49:05.991Z,2.60
2022-10-15T22:51:34.492Z,2.40
2022-10-15T22:54:03.161Z,3.37
2022-10-15T22:56:31.643Z,2.45
2022-10-15T22:59:00.078Z,2.50
2022-10-15T23:01:30.523Z,2.47
2022-10-15T23:04:04.371Z,2.25
2022-10-15T23:06:35.469Z,2.90
2022-10-15T23:09:05.787Z,3.22
2022-10-15T23:11:37.732Z,2.37
2022-10-15T23:14:10.191Z,2.60
2022-10-15T23:16:41.554Z,2.58
2022-10-15T23:19:27.682Z,2.60
2022-10-15T23:21:56.725Z,3.05
2022-10-15T23:24:27.349Z,2.50
2022-10-15T23:26:55.838Z,2.83
2022-10-15T23:29:26.758Z,2.70
2022-10-15T23:31:55.067Z,2.72
2022-10-15T23:34:25.711Z,2.80
2022-10-15T23:36:53.883Z,2.72
2022-10-15T23:39:25.514Z,2.55
2022-10-15T23:41:55.485Z,2.40
2022-10-15T23:44:25.727Z,2.30
2022-10-15T23:46:54.857Z,3.25
2022-10-15T23:49:23.229Z,2.75
2022-10-15T23:51:51.510Z,2.62
2022-10-15T23:54:20.271Z,2.50
2022-10-15T23:56:48.599Z,2.45
2022-10-15T23:59:18.262Z,2.80
